createdAt,value
2023-03-01T00:00:33.015Z,21.0
2023-03-01T00:15:32.930Z,21
2023-03-01T00:30:32.699Z,21
2023-03-01T00:45:32.408Z,20.9
2023-03-01T01:00:32.201Z,20.9
2023-03-01T01:15:32.189Z,20.9
2023-03-01T01:30:32.562Z,20.9
2023-03-01T01:45:32.675Z,20.9
2023-03-01T02:00:32.315Z,20.8
2023-03-01T02:15:32.320Z,20.8
2023-03-01T02:30:33.104Z,20.8
2023-03-01T02:45:32.634Z,20.8
2023-03-01T03:00:31.950Z,20.8
2023-03-01T03:15:32.091Z,20.7
2023-03-01T03:30:32.695Z,20.7
2023-03-01T03:45:32.445Z,20.7
2023-03-01T04:00:32.145Z,20.7
2023-03-01T04:15:32.329Z,20.7
2023-03-01T04:30:33.034Z,20.7
2023-03-01T04:45:32.221Z,20.7
2023-03-01T05:00:33.075Z,20.7
2023-03-01T05:15:32.243Z,20.7
2023-03-01T05:30:32.948Z,20.8
2023-03-01T05:45:32.705Z,20.8
2023-03-01T06:00:33.670Z,20.9
2023-03-01T06:15:32.162Z,20.9
2023-03-01T06:30:33.412Z,20.9
2023-03-01T06:45:32.433Z,21.0
2023-03-01T07:00:36.700Z,21.1
2023-03-01T07:15:32.336Z,21.1
2023-03-01T07:30:37.006Z,21.2
2023-03-01T07:45:32.680Z,21.2
2023-03-01T08:00:36.850Z,21.2
2023-03-01T08:15:32.922Z,21.3
2023-03-01T08:30:34.424Z,21.3
2023-03-01T08:45:32.090Z,21.4
2023-03-01T09:00:35.508Z,21.4
2023-03-01T09:15:33.111Z,21.4
2023-03-01T09:30:32.852Z,21.5
2023-03-01T09:45:32.114Z,21.5
2023-03-01T10:00:32.878Z,21.6
2023-03-01T10:15:33.241Z,21.6
2023-03-01T10:30:34.174Z,21.7
2023-03-01T10:45:33.037Z,21.7
2023-03-01T11:00:37.255Z,21.7
2023-03-01T11:15:32.922Z,21.8
2023-03-01T11:30:32.907Z,21.8
2023-03-01T11:45:32.723Z,21.8
2023-03-01T12:00:37.405Z,21.8
2023-03-01T12:15:32.532Z,21.8
2023-03-01T12:30:34.505Z,21.9
2023-03-01T12:45:32.154Z,21.9
2023-03-01T13:00:35.893Z,22
2023-03-01T13:15:32.258Z,22
2023-03-01T13:30:34.501Z,22.1
2023-03-01T13:45:33.286Z,22.1
2023-03-01T14:00:34.271Z,22.1
2023-03-01T14:15:32.588Z,22.2
2023-03-01T14:30:35.462Z,22.3
2023-03-01T14:45:32.637Z,22.3
2023-03-01T15:00:35.863Z,22.3
2023-03-01T15:15:32.640Z,22.3
2023-03-01T15:30:37.674Z,22.3
2023-03-01T15:45:32.023Z,22.3
2023-03-01T16:00:59.285Z,22.3
2023-03-01T16:15:33.240Z,22.3
2023-03-01T16:30:39.901Z,22.3
2023-03-01T16:45:32.833Z,22.3
2023-03-01T17:00:40.338Z,22.3
2023-03-01T17:15:32.595Z,22.2
2023-03-01T17:30:34.426Z,22.2
2023-03-01T17:45:33.884Z,22.2
2023-03-01T18:00:33.093Z,22.1
2023-03-01T18:15:33.075Z,22.1
2023-03-01T18:30:35.316Z,22.1
2023-03-01T18:45:32.423Z,22.0
2023-03-01T19:00:34.703Z,22
2023-03-01T19:15:32.605Z,21.9
2023-03-01T19:30:36.082Z,21.9
2023-03-01T19:45:33.664Z,21.8
2023-03-01T20:00:35.453Z,21.8
2023-03-01T20:15:32.384Z,21.7
2023-03-01T20:30:32.432Z,21.7
2023-03-01T20:45:32.750Z,21.6
2023-03-01T21:00:36.166Z,21.6
2023-03-01T21:15:32.458Z,21.5
2023-03-01T21:30:32.984Z,21.5
2023-03-01T21:45:31.968Z,21.5
2023-03-01T22:00:33.483Z,21.4
2023-03-01T22:15:32.239Z,21.4
2023-03-01T22:30:32.390Z,21.4
2023-03-01T22:45:32.535Z,21.3
2023-03-01T23:00:32.779Z,21.3
2023-03-01T23:15:32.421Z,21.3
2023-03-01T23:30:32.914Z,21.2
2023-03-01T23:45:32.537Z,21.2
